HVN1 KPHX-KLAX
Flight info
| Callsign | HVN1 |
|---|---|
| Flight time | 0h 58m |
| Altitude | 38000 |
| Route | KEENS3 WLVRN ESTWD HLYWD1 |
| Aircraft | A321/M-SDE3FGHIRWY/LB1 |
Departure
| Time | 2026-05-04 02:47 |
|---|---|
| Airport | Phoenix Sky Harbor International Airport (KPHX) |
Arrival
| Time | 2026-05-04 03:45 |
|---|---|
| Airport | Los Angeles International Airport (KLAX) |
| Time | Latitude | Longitude | Altitude | Speed | Heading |
|---|---|---|---|---|---|
| 2026-05-04 01:53 | 33.43328 | -111.99896 | 1129 ft | 0 kts | 4° |
| 2026-05-04 01:57 | 33.43327 | -111.99896 | 1129 ft | 0 kts | 4° |
| 2026-05-04 02:02 | 33.43327 | -111.99897 | 1129 ft | 0 kts | 4° |
| 2026-05-04 02:02 | 33.43327 | -111.99896 | 1129 ft | 0 kts | 4° |
| 2026-05-04 02:03 | 33.43327 | -111.99897 | 1130 ft | 0 kts | 4° |
| 2026-05-04 02:03 | 33.43327 | -111.99896 | 1130 ft | 0 kts | 4° |
| 2026-05-04 02:04 | 33.43327 | -111.99897 | 1130 ft | 0 kts | 4° |
| 2026-05-04 02:09 | 33.43326 | -111.99897 | 1130 ft | 0 kts | 4° |
| 2026-05-04 02:23 | 33.43325 | -111.99897 | 1130 ft | 0 kts | 4° |
| 2026-05-04 02:34 | 33.43319 | -111.99897 | 1130 ft | 4 kts | 4° |
| 2026-05-04 02:34 | 33.43314 | -111.99898 | 1135 ft | 0 kts | 4° |
| 2026-05-04 02:36 | 33.43310 | -111.99898 | 1137 ft | 3 kts | 6° |
| 2026-05-04 02:37 | 33.43286 | -111.99906 | 1133 ft | 4 kts | 50° |
| 2026-05-04 02:37 | 33.43280 | -111.99933 | 1135 ft | 4 kts | 99° |
| 2026-05-04 02:37 | 33.43283 | -111.99960 | 1133 ft | 1 kts | 90° |
| 2026-05-04 02:37 | 33.43283 | -111.99961 | 1134 ft | 0 kts | 90° |
| 2026-05-04 02:42 | 33.43283 | -111.99959 | 1133 ft | 1 kts | 90° |
| 2026-05-04 02:42 | 33.43283 | -111.99932 | 1135 ft | 5 kts | 90° |
| 2026-05-04 02:42 | 33.43283 | -111.99874 | 1132 ft | 9 kts | 90° |
| 2026-05-04 02:42 | 33.43283 | -111.99784 | 1132 ft | 13 kts | 90° |
| 2026-05-04 02:43 | 33.43282 | -111.99662 | 1132 ft | 16 kts | 90° |
| 2026-05-04 02:43 | 33.43282 | -111.99515 | 1132 ft | 19 kts | 90° |
| 2026-05-04 02:43 | 33.43283 | -111.99377 | 1132 ft | 13 kts | 90° |
| 2026-05-04 02:43 | 33.43274 | -111.99266 | 1135 ft | 10 kts | 117° |
| 2026-05-04 02:44 | 33.43258 | -111.99251 | 1130 ft | 1 kts | 160° |
| 2026-05-04 02:44 | 33.43241 | -111.99249 | 1134 ft | 3 kts | 184° |
| 2026-05-04 02:44 | 33.43214 | -111.99260 | 1132 ft | 5 kts | 207° |
| 2026-05-04 02:44 | 33.43181 | -111.99295 | 1133 ft | 8 kts | 224° |
| 2026-05-04 02:45 | 33.43136 | -111.99337 | 1131 ft | 8 kts | 202° |
| 2026-05-04 02:45 | 33.43116 | -111.99350 | 1131 ft | 2 kts | 225° |
| 2026-05-04 02:45 | 33.43105 | -111.99379 | 1133 ft | 6 kts | 256° |
| 2026-05-04 02:45 | 33.43104 | -111.99418 | 1133 ft | 0 kts | 271° |
| 2026-05-04 02:46 | 33.43104 | -111.99446 | 1131 ft | 9 kts | 270° |
| 2026-05-04 02:47 | 33.43104 | -111.99748 | 1130 ft | 80 kts | 270° |
| 2026-05-04 02:47 | 33.43107 | -112.00813 | 1222 ft | 164 kts | 274° |
| 2026-05-04 02:47 | 33.43190 | -112.02127 | 2334 ft | 154 kts | 271° |
| 2026-05-04 02:47 | 33.43075 | -112.03430 | 3147 ft | 168 kts | 258° |
| 2026-05-04 02:48 | 33.42923 | -112.04951 | 3794 ft | 199 kts | 260° |
| 2026-05-04 02:48 | 33.42600 | -112.06645 | 4457 ft | 223 kts | 249° |
| 2026-05-04 02:48 | 33.42070 | -112.08519 | 5285 ft | 252 kts | 249° |
| 2026-05-04 02:48 | 33.41524 | -112.10533 | 6641 ft | 257 kts | 249° |
| 2026-05-04 02:49 | 33.40968 | -112.12606 | 7881 ft | 267 kts | 249° |
| 2026-05-04 02:49 | 33.40390 | -112.14747 | 9190 ft | 272 kts | 248° |
| 2026-05-04 02:49 | 33.39796 | -112.16931 | 10392 ft | 281 kts | 248° |
| 2026-05-04 02:49 | 33.39226 | -112.19296 | 11017 ft | 312 kts | 259° |
| 2026-05-04 02:50 | 33.39343 | -112.21990 | 11565 ft | 344 kts | 275° |
| 2026-05-04 02:50 | 33.39769 | -112.24881 | 12541 ft | 355 kts | 278° |
| 2026-05-04 02:50 | 33.40266 | -112.27790 | 13854 ft | 357 kts | 277° |
| 2026-05-04 02:50 | 33.40710 | -112.30727 | 15003 ft | 358 kts | 276° |
| 2026-05-04 02:51 | 33.41124 | -112.33677 | 16155 ft | 360 kts | 276° |
| 2026-05-04 02:51 | 33.41556 | -112.36641 | 17259 ft | 363 kts | 277° |
| 2026-05-04 02:51 | 33.42006 | -112.39623 | 18305 ft | 366 kts | 277° |
| 2026-05-04 02:51 | 33.42455 | -112.42636 | 19236 ft | 368 kts | 277° |
| 2026-05-04 02:52 | 33.42899 | -112.45663 | 20155 ft | 370 kts | 277° |
| 2026-05-04 02:52 | 33.43345 | -112.48707 | 21057 ft | 372 kts | 277° |
| 2026-05-04 02:52 | 33.43790 | -112.51733 | 21885 ft | 375 kts | 277° |
| 2026-05-04 02:52 | 33.44244 | -112.54823 | 22836 ft | 374 kts | 277° |
| 2026-05-04 02:53 | 33.44691 | -112.57866 | 23939 ft | 367 kts | 277° |
| 2026-05-04 02:53 | 33.45015 | -112.60858 | 24922 ft | 357 kts | 270° |
| 2026-05-04 02:53 | 33.45061 | -112.63766 | 25860 ft | 351 kts | 269° |
| 2026-05-04 02:53 | 33.45104 | -112.66662 | 26850 ft | 344 kts | 269° |
| 2026-05-04 02:54 | 33.45144 | -112.69503 | 27845 ft | 337 kts | 269° |
| 2026-05-04 02:54 | 33.45179 | -112.72284 | 28841 ft | 331 kts | 269° |
| 2026-05-04 02:54 | 33.45213 | -112.75014 | 29697 ft | 329 kts | 269° |
| 2026-05-04 02:54 | 33.45316 | -112.77801 | 29848 ft | 342 kts | 275° |
| 2026-05-04 02:55 | 33.46480 | -112.83410 | 29849 ft | 353 kts | 287° |
| 2026-05-04 02:55 | 33.47431 | -112.86116 | 29838 ft | 353 kts | 287° |
| 2026-05-04 02:56 | 33.49324 | -112.91550 | 29823 ft | 352 kts | 287° |
| 2026-05-04 02:56 | 33.51214 | -112.96939 | 29805 ft | 352 kts | 287° |
| 2026-05-04 02:57 | 33.53105 | -113.02358 | 29790 ft | 352 kts | 287° |
| 2026-05-04 02:57 | 33.54995 | -113.07778 | 29778 ft | 351 kts | 287° |
| 2026-05-04 02:58 | 33.56884 | -113.13203 | 29776 ft | 352 kts | 287° |
| 2026-05-04 02:58 | 33.58755 | -113.18586 | 29810 ft | 351 kts | 287° |
| 2026-05-04 02:59 | 33.60638 | -113.24013 | 29876 ft | 353 kts | 287° |
| 2026-05-04 02:59 | 33.61595 | -113.26788 | 29911 ft | 367 kts | 287° |
| 2026-05-04 02:59 | 33.62593 | -113.29680 | 29943 ft | 382 kts | 287° |
| 2026-05-04 02:59 | 33.63633 | -113.32681 | 29975 ft | 396 kts | 287° |
| 2026-05-04 03:00 | 33.64696 | -113.35752 | 30003 ft | 408 kts | 287° |
| 2026-05-04 03:00 | 33.65798 | -113.38941 | 30036 ft | 419 kts | 287° |
| 2026-05-04 03:00 | 33.66929 | -113.42224 | 30069 ft | 428 kts | 287° |
| 2026-05-04 03:01 | 33.69214 | -113.48846 | 30105 ft | 430 kts | 287° |
| 2026-05-04 03:01 | 33.71499 | -113.55501 | 30110 ft | 431 kts | 287° |
| 2026-05-04 03:02 | 33.73769 | -113.62119 | 30074 ft | 431 kts | 287° |
| 2026-05-04 03:02 | 33.76025 | -113.68701 | 29995 ft | 412 kts | 287° |
| 2026-05-04 03:03 | 33.78151 | -113.74936 | 29932 ft | 399 kts | 286° |
| 2026-05-04 03:03 | 33.80253 | -113.81109 | 29855 ft | 399 kts | 286° |
| 2026-05-04 03:04 | 33.82349 | -113.87258 | 29775 ft | 399 kts | 286° |
| 2026-05-04 03:04 | 33.84446 | -113.93432 | 29740 ft | 398 kts | 286° |
| 2026-05-04 03:05 | 33.86527 | -113.99566 | 29739 ft | 397 kts | 286° |
| 2026-05-04 03:05 | 33.88617 | -114.05742 | 29733 ft | 398 kts | 286° |
| 2026-05-04 03:06 | 33.90431 | -114.11993 | 29737 ft | 394 kts | 278° |
| 2026-05-04 03:06 | 33.91217 | -114.18454 | 29729 ft | 391 kts | 274° |
| 2026-05-04 03:07 | 33.91875 | -114.24984 | 29725 ft | 391 kts | 273° |
| 2026-05-04 03:07 | 33.92513 | -114.31493 | 29730 ft | 392 kts | 273° |
| 2026-05-04 03:08 | 33.93153 | -114.37989 | 29727 ft | 391 kts | 273° |
| 2026-05-04 03:08 | 33.93788 | -114.44495 | 29724 ft | 391 kts | 273° |
| 2026-05-04 03:09 | 33.94423 | -114.51027 | 29722 ft | 391 kts | 273° |
| 2026-05-04 03:09 | 33.95048 | -114.57495 | 29721 ft | 391 kts | 273° |
| 2026-05-04 03:10 | 33.95673 | -114.63995 | 29720 ft | 390 kts | 273° |
| 2026-05-04 03:10 | 33.96293 | -114.70498 | 29718 ft | 390 kts | 273° |
| 2026-05-04 03:11 | 33.96911 | -114.76994 | 29719 ft | 390 kts | 273° |
| 2026-05-04 03:11 | 33.97521 | -114.83459 | 29721 ft | 390 kts | 273° |
| 2026-05-04 03:12 | 33.98132 | -114.89954 | 29728 ft | 389 kts | 273° |
| 2026-05-04 03:12 | 33.98736 | -114.96430 | 29732 ft | 388 kts | 272° |
| 2026-05-04 03:13 | 33.99315 | -115.02659 | 29739 ft | 380 kts | 272° |
| 2026-05-04 03:13 | 33.99892 | -115.08940 | 29725 ft | 386 kts | 272° |
| 2026-05-04 03:14 | 34.00388 | -115.14324 | 29740 ft | 389 kts | 272° |
| 2026-05-04 03:14 | 34.00982 | -115.20809 | 29740 ft | 389 kts | 272° |
| 2026-05-04 03:15 | 34.01571 | -115.27301 | 29751 ft | 388 kts | 272° |
| 2026-05-04 03:15 | 34.02152 | -115.33722 | 29755 ft | 386 kts | 272° |
| 2026-05-04 03:16 | 34.02732 | -115.40204 | 29764 ft | 387 kts | 272° |
| 2026-05-04 03:16 | 34.03311 | -115.46687 | 29754 ft | 388 kts | 272° |
| 2026-05-04 03:17 | 34.03881 | -115.53120 | 29761 ft | 388 kts | 272° |
| 2026-05-04 03:17 | 34.04452 | -115.59600 | 29768 ft | 388 kts | 272° |
| 2026-05-04 03:18 | 34.05022 | -115.66101 | 29779 ft | 390 kts | 272° |
| 2026-05-04 03:18 | 34.05586 | -115.72569 | 29784 ft | 388 kts | 272° |
| 2026-05-04 03:19 | 34.06145 | -115.79040 | 29790 ft | 388 kts | 272° |
| 2026-05-04 03:19 | 34.06705 | -115.85543 | 29804 ft | 388 kts | 271° |
| 2026-05-04 03:20 | 34.07257 | -115.92003 | 29824 ft | 387 kts | 271° |
| 2026-05-04 03:20 | 34.07804 | -115.98464 | 29830 ft | 390 kts | 271° |
| 2026-05-04 03:21 | 34.08354 | -116.04958 | 29852 ft | 388 kts | 271° |
| 2026-05-04 03:21 | 34.08900 | -116.11472 | 29840 ft | 388 kts | 271° |
| 2026-05-04 03:22 | 34.09437 | -116.17926 | 29850 ft | 389 kts | 271° |
| 2026-05-04 03:22 | 34.09978 | -116.24452 | 29859 ft | 389 kts | 271° |
| 2026-05-04 03:23 | 34.10245 | -116.30922 | 29837 ft | 386 kts | 264° |
| 2026-05-04 03:23 | 34.09621 | -116.37361 | 29832 ft | 386 kts | 261° |
| 2026-05-04 03:24 | 34.08942 | -116.43789 | 29490 ft | 389 kts | 261° |
| 2026-05-04 03:24 | 34.08589 | -116.47039 | 29099 ft | 389 kts | 261° |
| 2026-05-04 03:24 | 34.08244 | -116.50243 | 28614 ft | 389 kts | 261° |
| 2026-05-04 03:24 | 34.07896 | -116.53483 | 28141 ft | 390 kts | 261° |
| 2026-05-04 03:25 | 34.07547 | -116.56713 | 27654 ft | 390 kts | 261° |
| 2026-05-04 03:25 | 34.07211 | -116.59967 | 27170 ft | 389 kts | 262° |
| 2026-05-04 03:25 | 34.06919 | -116.63220 | 26703 ft | 389 kts | 262° |
| 2026-05-04 03:25 | 34.06612 | -116.66463 | 26237 ft | 389 kts | 262° |
| 2026-05-04 03:26 | 34.06310 | -116.69665 | 25787 ft | 388 kts | 262° |
| 2026-05-04 03:26 | 34.06013 | -116.72886 | 25337 ft | 382 kts | 262° |
| 2026-05-04 03:26 | 34.05725 | -116.76037 | 24892 ft | 370 kts | 262° |
| 2026-05-04 03:26 | 34.05438 | -116.79060 | 24444 ft | 358 kts | 261° |
| 2026-05-04 03:27 | 34.05158 | -116.82012 | 24020 ft | 349 kts | 262° |
| 2026-05-04 03:27 | 34.04891 | -116.84869 | 23897 ft | 336 kts | 262° |
| 2026-05-04 03:27 | 34.04629 | -116.87657 | 23912 ft | 337 kts | 261° |
| 2026-05-04 03:27 | 34.04315 | -116.90396 | 23929 ft | 343 kts | 259° |
| 2026-05-04 03:28 | 34.03933 | -116.93307 | 23951 ft | 344 kts | 259° |
| 2026-05-04 03:28 | 34.03566 | -116.96162 | 23966 ft | 344 kts | 259° |
| 2026-05-04 03:28 | 34.03195 | -116.99039 | 23739 ft | 349 kts | 259° |
| 2026-05-04 03:28 | 34.02825 | -117.01891 | 23353 ft | 340 kts | 259° |
| 2026-05-04 03:29 | 34.02466 | -117.04676 | 22553 ft | 340 kts | 259° |
| 2026-05-04 03:29 | 34.02139 | -117.07482 | 21890 ft | 335 kts | 260° |
| 2026-05-04 03:29 | 34.01826 | -117.10251 | 21206 ft | 332 kts | 260° |
| 2026-05-04 03:29 | 34.01501 | -117.12990 | 20546 ft | 328 kts | 259° |
| 2026-05-04 03:30 | 34.01180 | -117.15646 | 19907 ft | 325 kts | 259° |
| 2026-05-04 03:30 | 34.00851 | -117.18400 | 19242 ft | 321 kts | 259° |
| 2026-05-04 03:30 | 34.00539 | -117.21040 | 18594 ft | 318 kts | 259° |
| 2026-05-04 03:30 | 34.00223 | -117.23676 | 17895 ft | 315 kts | 259° |
| 2026-05-04 03:31 | 33.99909 | -117.26291 | 17353 ft | 311 kts | 259° |
| 2026-05-04 03:31 | 33.99609 | -117.28794 | 16974 ft | 314 kts | 259° |
| 2026-05-04 03:31 | 33.99288 | -117.31455 | 16570 ft | 317 kts | 259° |
| 2026-05-04 03:31 | 33.98978 | -117.34088 | 16179 ft | 319 kts | 259° |
| 2026-05-04 03:32 | 33.98671 | -117.36742 | 15785 ft | 319 kts | 259° |
| 2026-05-04 03:32 | 33.98360 | -117.39392 | 15391 ft | 320 kts | 259° |
| 2026-05-04 03:32 | 33.98049 | -117.42029 | 14990 ft | 313 kts | 259° |
| 2026-05-04 03:32 | 33.97745 | -117.44603 | 14606 ft | 309 kts | 259° |
| 2026-05-04 03:33 | 33.97633 | -117.45551 | 14463 ft | 309 kts | 259° |
| 2026-05-04 03:33 | 33.97340 | -117.54962 | 13046 ft | 311 kts | 267° |
| 2026-05-04 03:34 | 33.97373 | -117.57562 | 12658 ft | 309 kts | 268° |
| 2026-05-04 03:34 | 33.97414 | -117.60142 | 12278 ft | 307 kts | 268° |
| 2026-05-04 03:34 | 33.97455 | -117.62715 | 11894 ft | 306 kts | 268° |
| 2026-05-04 03:34 | 33.97491 | -117.65263 | 11523 ft | 304 kts | 268° |
| 2026-05-04 03:35 | 33.97527 | -117.67802 | 11140 ft | 302 kts | 268° |
| 2026-05-04 03:35 | 33.97563 | -117.70337 | 10763 ft | 301 kts | 268° |
| 2026-05-04 03:35 | 33.97599 | -117.72870 | 10374 ft | 300 kts | 268° |
| 2026-05-04 03:35 | 33.97631 | -117.75216 | 10040 ft | 298 kts | 268° |
| 2026-05-04 03:36 | 33.97666 | -117.77828 | 9626 ft | 296 kts | 268° |
| 2026-05-04 03:36 | 33.97699 | -117.80306 | 9251 ft | 295 kts | 269° |
| 2026-05-04 03:36 | 33.97732 | -117.82725 | 8886 ft | 282 kts | 269° |
| 2026-05-04 03:36 | 33.97764 | -117.85064 | 8544 ft | 276 kts | 269° |
| 2026-05-04 03:37 | 33.97791 | -117.87367 | 8197 ft | 274 kts | 269° |
| 2026-05-04 03:37 | 33.97819 | -117.89660 | 7850 ft | 273 kts | 269° |
| 2026-05-04 03:37 | 33.97849 | -117.91939 | 7516 ft | 271 kts | 269° |
| 2026-05-04 03:37 | 33.97878 | -117.94182 | 7182 ft | 270 kts | 269° |
| 2026-05-04 03:38 | 33.97902 | -117.96435 | 6846 ft | 269 kts | 270° |
| 2026-05-04 03:38 | 33.97930 | -117.98678 | 6511 ft | 261 kts | 270° |
| 2026-05-04 03:38 | 33.97956 | -118.00823 | 6178 ft | 252 kts | 270° |
| 2026-05-04 03:38 | 33.97980 | -118.02875 | 5858 ft | 245 kts | 270° |
| 2026-05-04 03:39 | 33.98003 | -118.04929 | 5561 ft | 245 kts | 270° |
| 2026-05-04 03:39 | 33.98148 | -118.06773 | 5280 ft | 246 kts | 281° |
| 2026-05-04 03:39 | 33.98325 | -118.08816 | 4983 ft | 246 kts | 268° |
| 2026-05-04 03:39 | 33.98206 | -118.10844 | 4678 ft | 239 kts | 262° |
| 2026-05-04 03:40 | 33.98010 | -118.12757 | 4387 ft | 231 kts | 262° |
| 2026-05-04 03:40 | 33.97848 | -118.14347 | 4155 ft | 226 kts | 262° |
| 2026-05-04 03:40 | 33.97629 | -118.16508 | 3839 ft | 220 kts | 262° |
| 2026-05-04 03:40 | 33.97445 | -118.18315 | 3572 ft | 215 kts | 262° |
| 2026-05-04 03:41 | 33.97266 | -118.20066 | 3338 ft | 204 kts | 262° |
| 2026-05-04 03:41 | 33.97097 | -118.21725 | 3090 ft | 192 kts | 263° |
| 2026-05-04 03:41 | 33.96938 | -118.23285 | 2839 ft | 183 kts | 262° |
| 2026-05-04 03:41 | 33.96788 | -118.24746 | 2611 ft | 169 kts | 263° |
| 2026-05-04 03:42 | 33.96653 | -118.26083 | 2463 ft | 164 kts | 263° |
| 2026-05-04 03:42 | 33.96515 | -118.27430 | 2255 ft | 162 kts | 263° |
| 2026-05-04 03:42 | 33.96377 | -118.28776 | 2043 ft | 161 kts | 263° |
| 2026-05-04 03:42 | 33.96242 | -118.30099 | 1826 ft | 157 kts | 263° |
| 2026-05-04 03:43 | 33.96111 | -118.31384 | 1616 ft | 154 kts | 263° |
| 2026-05-04 03:43 | 33.95982 | -118.32654 | 1397 ft | 151 kts | 263° |
| 2026-05-04 03:43 | 33.95860 | -118.33840 | 1201 ft | 141 kts | 263° |
| 2026-05-04 03:43 | 33.95744 | -118.34983 | 1023 ft | 133 kts | 263° |
| 2026-05-04 03:44 | 33.95631 | -118.36054 | 847 ft | 126 kts | 264° |
| 2026-05-04 03:44 | 33.95530 | -118.37091 | 680 ft | 127 kts | 263° |
| 2026-05-04 03:44 | 33.95421 | -118.38142 | 535 ft | 130 kts | 269° |
| 2026-05-04 03:44 | 33.95304 | -118.39188 | 309 ft | 121 kts | 267° |
| 2026-05-04 03:45 | 33.95212 | -118.40221 | 138 ft | 123 kts | 266° |
| 2026-05-04 03:45 | 33.95115 | -118.41164 | 110 ft | 93 kts | 262° |
| 2026-05-04 03:45 | 33.95046 | -118.41770 | 111 ft | 53 kts | 263° |
| 2026-05-04 03:45 | 33.95009 | -118.42053 | 110 ft | 27 kts | 251° |
| 2026-05-04 03:46 | 33.94937 | -118.42198 | 110 ft | 14 kts | 224° |
| 2026-05-04 03:46 | 33.94869 | -118.42264 | 111 ft | 22 kts | 207° |
| 2026-05-04 03:46 | 33.94709 | -118.42272 | 106 ft | 14 kts | 170° |
| 2026-05-04 03:46 | 33.94695 | -118.42269 | 106 ft | 0 kts | 170° |
| 2026-05-04 03:47 | 33.94694 | -118.42269 | 106 ft | 0 kts | 170° |
| 2026-05-04 03:47 | 33.94687 | -118.42268 | 105 ft | 4 kts | 173° |
| 2026-05-04 03:47 | 33.94639 | -118.42257 | 103 ft | 8 kts | 157° |
| 2026-05-04 03:47 | 33.94612 | -118.42213 | 103 ft | 5 kts | 105° |
| 2026-05-04 03:48 | 33.94613 | -118.42158 | 103 ft | 9 kts | 84° |
| 2026-05-04 03:48 | 33.94621 | -118.42069 | 101 ft | 12 kts | 83° |
| 2026-05-04 03:48 | 33.94628 | -118.41949 | 104 ft | 17 kts | 90° |
| 2026-05-04 03:48 | 33.94636 | -118.41807 | 101 ft | 16 kts | 83° |
| 2026-05-04 03:49 | 33.94653 | -118.41658 | 101 ft | 18 kts | 83° |
| 2026-05-04 03:49 | 33.94665 | -118.41542 | 104 ft | 15 kts | 84° |
| 2026-05-04 03:49 | 33.94678 | -118.41412 | 103 ft | 15 kts | 83° |
| 2026-05-04 03:49 | 33.94686 | -118.41307 | 104 ft | 8 kts | 100° |
| 2026-05-04 03:50 | 33.94677 | -118.41291 | 103 ft | 0 kts | 142° |
| 2026-05-04 03:50 | 33.94667 | -118.41287 | 104 ft | 4 kts | 159° |
| 2026-05-04 03:50 | 33.94621 | -118.41274 | 102 ft | 8 kts | 172° |
| 2026-05-04 03:50 | 33.94555 | -118.41264 | 101 ft | 11 kts | 173° |
| 2026-05-04 03:51 | 33.94465 | -118.41250 | 101 ft | 15 kts | 172° |
| 2026-05-04 03:51 | 33.94376 | -118.41238 | 101 ft | 14 kts | 173° |
| 2026-05-04 03:51 | 33.94258 | -118.41220 | 102 ft | 20 kts | 173° |
| 2026-05-04 03:51 | 33.94207 | -118.41212 | 102 ft | 3 kts | 173° |
| 2026-05-04 03:52 | 33.94179 | -118.41204 | 102 ft | 1 kts | 149° |
| 2026-05-04 03:52 | 33.94175 | -118.41194 | 100 ft | 4 kts | 118° |
| 2026-05-04 03:52 | 33.94171 | -118.41152 | 102 ft | 7 kts | 83° |
| 2026-05-04 03:52 | 33.94177 | -118.41101 | 100 ft | 4 kts | 82° |
| 2026-05-04 03:53 | 33.94177 | -118.41096 | 100 ft | 0 kts | 82° |